sensor_id;sensor_type;location;lat;lon;timestamp;pressure;altitude;pressure_sealevel;temperature;humidity
41334;BME280;27078;46.428;6.256;2023-11-21T00:01:50;96187.19;;;8.64;66.18
41334;BME280;27078;46.428;6.256;2023-11-21T00:04:15;96187.09;;;8.55;60.12
41334;BME280;27078;46.428;6.256;2023-11-21T00:06:40;96179.56;;;8.42;63.61
41334;BME280;27078;46.428;6.256;2023-11-21T00:09:06;96185.44;;;8.35;61.24
41334;BME280;27078;46.428;6.256;2023-11-21T00:11:33;96178.34;;;8.29;61.50
41334;BME280;27078;46.428;6.256;2023-11-21T00:13:59;96176.44;;;8.11;60.82
41334;BME280;27078;46.428;6.256;2023-11-21T00:16:27;96184.94;;;7.95;60.46
41334;BME280;27078;46.428;6.256;2023-11-21T00:18:52;96175.47;;;7.82;60.71
41334;BME280;27078;46.428;6.256;2023-11-21T00:21:17;96173.28;;;7.79;60.57
41334;BME280;27078;46.428;6.256;2023-11-21T00:23:43;96163.81;;;7.67;61.04
41334;BME280;27078;46.428;6.256;2023-11-21T00:26:08;96163.44;;;7.54;62.62
41334;BME280;27078;46.428;6.256;2023-11-21T00:28:33;96163.94;;;7.38;63.17
41334;BME280;27078;46.428;6.256;2023-11-21T00:30:59;96166.41;;;7.39;62.82
41334;BME280;27078;46.428;6.256;2023-11-21T00:33:24;96158.75;;;7.31;63.37
41334;BME280;27078;46.428;6.256;2023-11-21T00:35:50;96168.75;;;7.27;64.30
41334;BME280;27078;46.428;6.256;2023-11-21T00:38:16;96166.00;;;7.27;64.09
41334;BME280;27078;46.428;6.256;2023-11-21T00:40:44;96177.41;;;7.20;66.01
41334;BME280;27078;46.428;6.256;2023-11-21T00:43:10;96177.88;;;7.03;65.15
41334;BME280;27078;46.428;6.256;2023-11-21T00:45:35;96176.84;;;6.94;64.90
41334;BME280;27078;46.428;6.256;2023-11-21T00:48:02;96165.78;;;6.99;66.58
41334;BME280;27078;46.428;6.256;2023-11-21T00:50:27;96172.03;;;7.05;64.41
41334;BME280;27078;46.428;6.256;2023-11-21T00:52:52;96158.25;;;7.05;63.46
41334;BME280;27078;46.428;6.256;2023-11-21T00:55:18;96165.34;;;7.11;62.74
41334;BME280;27078;46.428;6.256;2023-11-21T00:57:43;96153.72;;;7.14;65.38
41334;BME280;27078;46.428;6.256;2023-11-21T01:00:09;96151.69;;;7.01;64.35
41334;BME280;27078;46.428;6.256;2023-11-21T01:02:43;96158.59;;;6.98;64.33
41334;BME280;27078;46.428;6.256;2023-11-21T01:05:10;96149.50;;;6.98;65.81
41334;BME280;27078;46.428;6.256;2023-11-21T01:07:36;96156.50;;;6.90;65.32
41334;BME280;27078;46.428;6.256;2023-11-21T01:10:03;96150.97;;;6.90;65.99
41334;BME280;27078;46.428;6.256;2023-11-21T01:12:30;96141.00;;;6.94;65.96
41334;BME280;27078;46.428;6.256;2023-11-21T01:14:56;96144.97;;;7.07;64.67
41334;BME280;27078;46.428;6.256;2023-11-21T01:17:25;96145.44;;;7.14;65.00
41334;BME280;27078;46.428;6.256;2023-11-21T01:19:50;96144.56;;;7.19;64.71
41334;BME280;27078;46.428;6.256;2023-11-21T01:22:16;96147.25;;;7.24;64.49
41334;BME280;27078;46.428;6.256;2023-11-21T01:24:41;96133.69;;;7.27;63.55
41334;BME280;27078;46.428;6.256;2023-11-21T01:27:06;96134.22;;;7.29;63.67
41334;BME280;27078;46.428;6.256;2023-11-21T01:29:32;96133.91;;;7.31;64.28
41334;BME280;27078;46.428;6.256;2023-11-21T01:31:57;96127.88;;;7.29;63.16
41334;BME280;27078;46.428;6.256;2023-11-21T01:34:22;96132.28;;;7.30;63.32
41334;BME280;27078;46.428;6.256;2023-11-21T01:36:48;96133.09;;;7.30;63.34
41334;BME280;27078;46.428;6.256;2023-11-21T01:39:14;96138.84;;;7.34;63.46
41334;BME280;27078;46.428;6.256;2023-11-21T01:41:41;96142.16;;;7.36;63.97
41334;BME280;27078;46.428;6.256;2023-11-21T01:44:09;96135.53;;;7.32;64.71
41334;BME280;27078;46.428;6.256;2023-11-21T01:46:35;96142.28;;;7.26;65.72
41334;BME280;27078;46.428;6.256;2023-11-21T01:49:00;96134.63;;;7.18;65.61
41334;BME280;27078;46.428;6.256;2023-11-21T01:51:26;96144.97;;;7.07;67.86
41334;BME280;27078;46.428;6.256;2023-11-21T01:53:52;96149.00;;;6.96;69.68
41334;BME280;27078;46.428;6.256;2023-11-21T01:56:17;96135.81;;;6.88;70.35
41334;BME280;27078;46.428;6.256;2023-11-21T01:58:43;96137.22;;;6.85;70.19
41334;BME280;27078;46.428;6.256;2023-11-21T02:01:09;96136.81;;;6.97;71.19
41334;BME280;27078;46.428;6.256;2023-11-21T02:03:35;96142.19;;;7.12;70.50
41334;BME280;27078;46.428;6.256;2023-11-21T02:06:00;96134.59;;;7.23;69.15
41334;BME280;27078;46.428;6.256;2023-11-21T02:08:26;96135.09;;;7.25;68.80
41334;BME280;27078;46.428;6.256;2023-11-21T02:10:52;96134.97;;;7.35;68.75
41334;BME280;27078;46.428;6.256;2023-11-21T02:13:17;96128.41;;;7.31;68.51
41334;BME280;27078;46.428;6.256;2023-11-21T02:15:43;96131.25;;;7.26;68.81
41334;BME280;27078;46.428;6.256;2023-11-21T02:18:08;96128.25;;;7.22;68.72
41334;BME280;27078;46.428;6.256;2023-11-21T02:20:36;96120.84;;;7.18;66.93
41334;BME280;27078;46.428;6.256;2023-11-21T02:23:04;96130.88;;;7.08;66.52
41334;BME280;27078;46.428;6.256;2023-11-21T02:25:31;96137.13;;;6.95;67.34
41334;BME280;27078;46.428;6.256;2023-11-21T02:27:59;96136.38;;;6.90;67.40
41334;BME280;27078;46.428;6.256;2023-11-21T02:30:25;96129.84;;;6.80;68.19
41334;BME280;27078;46.428;6.256;2023-11-21T02:32:51;96121.31;;;6.77;68.05
41334;BME280;27078;46.428;6.256;2023-11-21T02:35:20;96125.56;;;6.69;69.10
41334;BME280;27078;46.428;6.256;2023-11-21T02:37:49;96118.09;;;6.70;70.08
41334;BME280;27078;46.428;6.256;2023-11-21T02:40:15;96112.59;;;6.70;69.22
41334;BME280;27078;46.428;6.256;2023-11-21T02:42:48;96113.97;;;6.67;69.43
41334;BME280;27078;46.428;6.256;2023-11-21T02:45:16;96110.09;;;6.68;69.05
41334;BME280;27078;46.428;6.256;2023-11-21T02:47:42;96109.81;;;6.70;69.24
41334;BME280;27078;46.428;6.256;2023-11-21T02:50:08;96110.84;;;6.79;69.93
41334;BME280;27078;46.428;6.256;2023-11-21T02:52:34;96094.22;;;6.84;69.88
41334;BME280;27078;46.428;6.256;2023-11-21T02:55:03;96103.06;;;6.81;70.04
41334;BME280;27078;46.428;6.256;2023-11-21T02:57:29;96094.31;;;6.74;69.26
41334;BME280;27078;46.428;6.256;2023-11-21T02:59:55;96088.03;;;6.68;69.93
41334;BME280;27078;46.428;6.256;2023-11-21T03:02:21;96082.91;;;6.61;70.92
41334;BME280;27078;46.428;6.256;2023-11-21T03:04:47;96084.88;;;6.56;71.24
41334;BME280;27078;46.428;6.256;2023-11-21T03:07:14;96081.88;;;6.52;71.94
41334;BME280;27078;46.428;6.256;2023-11-21T03:09:39;96083.59;;;6.48;71.91
41334;BME280;27078;46.428;6.256;2023-11-21T03:12:05;96085.22;;;6.49;70.85
41334;BME280;27078;46.428;6.256;2023-11-21T03:14:30;96092.09;;;6.52;71.25
41334;BME280;27078;46.428;6.256;2023-11-21T03:16:56;96091.25;;;6.51;71.56
41334;BME280;27078;46.428;6.256;2023-11-21T03:19:22;96086.00;;;6.55;72.52
41334;BME280;27078;46.428;6.256;2023-11-21T03:21:47;96092.63;;;6.54;72.22
41334;BME280;27078;46.428;6.256;2023-11-21T03:24:12;96090.44;;;6.51;71.88
41334;BME280;27078;46.428;6.256;2023-11-21T03:26:38;96093.19;;;6.51;71.06
41334;BME280;27078;46.428;6.256;2023-11-21T03:29:03;96092.63;;;6.54;71.16
41334;BME280;27078;46.428;6.256;2023-11-21T03:31:30;96079.13;;;6.52;72.41
41334;BME280;27078;46.428;6.256;2023-11-21T03:33:55;96095.91;;;6.56;72.87
41334;BME280;27078;46.428;6.256;2023-11-21T03:36:21;96093.44;;;6.54;71.85
41334;BME280;27078;46.428;6.256;2023-11-21T03:38:48;96087.06;;;6.59;73.04
41334;BME280;27078;46.428;6.256;2023-11-21T03:41:13;96094.44;;;6.63;71.82
41334;BME280;27078;46.428;6.256;2023-11-21T03:43:40;96091.66;;;6.69;71.21
41334;BME280;27078;46.428;6.256;2023-11-21T03:46:05;96093.19;;;6.75;71.27
41334;BME280;27078;46.428;6.256;2023-11-21T03:48:31;96095.44;;;6.73;71.37
41334;BME280;27078;46.428;6.256;2023-11-21T03:50:58;96100.44;;;6.71;71.04
41334;BME280;27078;46.428;6.256;2023-11-21T03:53:23;96098.25;;;6.68;71.99
41334;BME280;27078;46.428;6.256;2023-11-21T03:55:48;96101.09;;;6.62;72.21
41334;BME280;27078;46.428;6.256;2023-11-21T03:58:15;96102.72;;;6.63;72.20
41334;BME280;27078;46.428;6.256;2023-11-21T04:00:40;96096.38;;;6.63;71.78
41334;BME280;27078;46.428;6.256;2023-11-21T04:03:05;96103.03;;;6.62;72.45
41334;BME280;27078;46.428;6.256;2023-11-21T04:05:31;96096.69;;;6.61;72.37
41334;BME280;27078;46.428;6.256;2023-11-21T04:07:56;96096.69;;;6.61;72.73
41334;BME280;27078;46.428;6.256;2023-11-21T04:10:21;96095.84;;;6.61;72.72
41334;BME280;27078;46.428;6.256;2023-11-21T04:12:47;96101.94;;;6.58;72.42
41334;BME280;27078;46.428;6.256;2023-11-21T04:15:13;96095.34;;;6.59;73.09
41334;BME280;27078;46.428;6.256;2023-11-21T04:17:40;96100.03;;;6.58;73.84
41334;BME280;27078;46.428;6.256;2023-11-21T04:20:06;96095.59;;;6.57;74.17
41334;BME280;27078;46.428;6.256;2023-11-21T04:22:42;96093.44;;;6.54;73.39
41334;BME280;27078;46.428;6.256;2023-11-21T04:25:14;96093.75;;;6.53;73.41
41334;BME280;27078;46.428;6.256;2023-11-21T04:27:40;96091.78;;;6.53;73.72
41334;BME280;27078;46.428;6.256;2023-11-21T04:30:09;96095.13;;;6.50;74.55
41334;BME280;27078;46.428;6.256;2023-11-21T04:32:35;96102.03;;;6.48;74.25
41334;BME280;27078;46.428;6.256;2023-11-21T04:35:04;96102.91;;;6.48;73.64
41334;BME280;27078;46.428;6.256;2023-11-21T04:37:29;96099.59;;;6.46;75.03
41334;BME280;27078;46.428;6.256;2023-11-21T04:39:54;96105.41;;;6.45;74.79
41334;BME280;27078;46.428;6.256;2023-11-21T04:42:20;96100.13;;;6.48;75.20
41334;BME280;27078;46.428;6.256;2023-11-21T04:44:45;96103.47;;;6.45;74.45
41334;BME280;27078;46.428;6.256;2023-11-21T04:47:10;96096.84;;;6.46;73.74
41334;BME280;27078;46.428;6.256;2023-11-21T04:49:36;96092.44;;;6.45;74.36
41334;BME280;27078;46.428;6.256;2023-11-21T04:52:01;96088.03;;;6.44;73.68
41334;BME280;27078;46.428;6.256;2023-11-21T04:54:30;96094.97;;;6.42;74.25
41334;BME280;27078;46.428;6.256;2023-11-21T04:56:55;96099.41;;;6.37;74.69
41334;BME280;27078;46.428;6.256;2023-11-21T04:59:21;96099.69;;;6.36;74.98
41334;BME280;27078;46.428;6.256;2023-11-21T05:01:49;96099.16;;;6.34;76.30
41334;BME280;27078;46.428;6.256;2023-11-21T05:04:15;96101.34;;;6.37;76.80
41334;BME280;27078;46.428;6.256;2023-11-21T05:06:40;96090.88;;;6.34;75.66
41334;BME280;27078;46.428;6.256;2023-11-21T05:09:05;96092.00;;;6.33;75.59
41334;BME280;27078;46.428;6.256;2023-11-21T05:11:31;96092.06;;;6.28;76.05
41334;BME280;27078;46.428;6.256;2023-11-21T05:13:57;96096.81;;;6.22;76.67
41334;BME280;27078;46.428;6.256;2023-11-21T05:16:25;96093.25;;;6.17;77.21
41334;BME280;27078;46.428;6.256;2023-11-21T05:18:52;96100.44;;;6.18;76.54
41334;BME280;27078;46.428;6.256;2023-11-21T05:21:18;96099.59;;;6.17;77.03
41334;BME280;27078;46.428;6.256;2023-11-21T05:23:46;96094.38;;;6.15;77.44
41334;BME280;27078;46.428;6.256;2023-11-21T05:26:11;96091.09;;;6.13;77.65
41334;BME280;27078;46.428;6.256;2023-11-21T05:28:36;96095.00;;;6.07;77.73
41334;BME280;27078;46.428;6.256;2023-11-21T05:31:02;96089.75;;;6.11;77.80
41334;BME280;27078;46.428;6.256;2023-11-21T05:33:27;96098.63;;;6.03;78.52
41334;BME280;27078;46.428;6.256;2023-11-21T05:35:52;96088.19;;;6.00;78.76
41334;BME280;27078;46.428;6.256;2023-11-21T05:38:18;96092.88;;;5.99;78.06
41334;BME280;27078;46.428;6.256;2023-11-21T05:40:43;96100.31;;;5.99;78.71
41334;BME280;27078;46.428;6.256;2023-11-21T05:43:09;96094.94;;;6.18;78.83
41334;BME280;27078;46.428;6.256;2023-11-21T05:45:34;96092.34;;;6.26;78.12
41334;BME280;27078;46.428;6.256;2023-11-21T05:47:59;96089.78;;;6.35;77.99
41334;BME280;27078;46.428;6.256;2023-11-21T05:50:25;96099.69;;;6.36;77.03
41334;BME280;27078;46.428;6.256;2023-11-21T05:52:50;96100.25;;;6.38;77.20
41334;BME280;27078;46.428;6.256;2023-11-21T05:55:16;96104.44;;;6.30;77.35
41334;BME280;27078;46.428;6.256;2023-11-21T05:57:42;96105.59;;;6.24;77.64
41334;BME280;27078;46.428;6.256;2023-11-21T06:00:10;96113.69;;;6.15;78.57
41334;BME280;27078;46.428;6.256;2023-11-21T06:02:38;96106.00;;;6.07;78.61
41334;BME280;27078;46.428;6.256;2023-11-21T06:05:04;96112.94;;;6.05;79.11
41334;BME280;27078;46.428;6.256;2023-11-21T06:07:29;96120.34;;;6.09;78.79
41334;BME280;27078;46.428;6.256;2023-11-21T06:09:55;96128.81;;;6.18;78.87
41334;BME280;27078;46.428;6.256;2023-11-21T06:12:20;96119.91;;;6.26;78.46
41334;BME280;27078;46.428;6.256;2023-11-21T06:14:45;96123.47;;;6.27;77.91
41334;BME280;27078;46.428;6.256;2023-11-21T06:17:11;96116.03;;;6.27;78.18
41334;BME280;27078;46.428;6.256;2023-11-21T06:19:36;96111.94;;;6.25;77.84
41334;BME280;27078;46.428;6.256;2023-11-21T06:22:02;96113.59;;;6.26;79.17
41334;BME280;27078;46.428;6.256;2023-11-21T06:24:27;96113.59;;;6.26;78.47
41334;BME280;27078;46.428;6.256;2023-11-21T06:26:53;96115.75;;;6.29;78.21
41334;BME280;27078;46.428;6.256;2023-11-21T06:29:18;96114.63;;;6.30;77.35
41334;BME280;27078;46.428;6.256;2023-11-21T06:31:43;96115.47;;;6.30;77.38
41334;BME280;27078;46.428;6.256;2023-11-21T06:34:09;96123.44;;;6.32;78.10
41334;BME280;27078;46.428;6.256;2023-11-21T06:36:35;96123.34;;;6.42;77.99
41334;BME280;27078;46.428;6.256;2023-11-21T06:39:01;96126.09;;;6.42;77.17
41334;BME280;27078;46.428;6.256;2023-11-21T06:41:26;96131.66;;;6.37;77.14
41334;BME280;27078;46.428;6.256;2023-11-21T06:43:52;96134.00;;;6.25;77.12
41334;BME280;27078;46.428;6.256;2023-11-21T06:46:18;96139.03;;;6.18;77.92
41334;BME280;27078;46.428;6.256;2023-11-21T06:48:44;96146.50;;;6.12;77.61
41334;BME280;27078;46.428;6.256;2023-11-21T06:51:10;96147.06;;;6.09;78.11
41334;BME280;27078;46.428;6.256;2023-11-21T06:53:36;96148.75;;;6.05;78.31
41334;BME280;27078;46.428;6.256;2023-11-21T06:56:02;96140.81;;;5.98;78.47
41334;BME280;27078;46.428;6.256;2023-11-21T06:58:28;96138.09;;;5.93;78.85
41334;BME280;27078;46.428;6.256;2023-11-21T07:00:53;96141.94;;;5.92;79.12
41334;BME280;27078;46.428;6.256;2023-11-21T07:03:19;96144.97;;;5.90;79.32
41334;BME280;27078;46.428;6.256;2023-11-21T07:05:45;96147.72;;;5.90;78.76
41334;BME280;27078;46.428;6.256;2023-11-21T07:08:10;96148.84;;;5.89;78.90
41334;BME280;27078;46.428;6.256;2023-11-21T07:10:36;96153.53;;;5.89;79.22
41334;BME280;27078;46.428;6.256;2023-11-21T07:13:02;96155.16;;;5.90;78.90
41334;BME280;27078;46.428;6.256;2023-11-21T07:15:27;96156.84;;;5.91;79.02
41334;BME280;27078;46.428;6.256;2023-11-21T07:17:53;96152.97;;;5.92;78.74
41334;BME280;27078;46.428;6.256;2023-11-21T07:20:19;96153.53;;;5.89;78.54
41334;BME280;27078;46.428;6.256;2023-11-21T07:22:45;96144.47;;;5.83;78.70
41334;BME280;27078;46.428;6.256;2023-11-21T07:25:10;96141.66;;;5.94;79.89
41334;BME280;27078;46.428;6.256;2023-11-21T07:27:36;96149.91;;;6.33;80.10
41334;BME280;27078;46.428;6.256;2023-11-21T07:30:02;96146.31;;;6.32;77.69
41334;BME280;27078;46.428;6.256;2023-11-21T07:32:33;96157.19;;;6.19;77.76
41334;BME280;27078;46.428;6.256;2023-11-21T07:34:58;96156.13;;;6.14;77.67
41334;BME280;27078;46.428;6.256;2023-11-21T07:37:26;96155.59;;;6.12;78.12
41334;BME280;27078;46.428;6.256;2023-11-21T07:39:54;96154.22;;;6.10;78.07
41334;BME280;27078;46.428;6.256;2023-11-21T07:42:24;96152.59;;;6.09;77.90
41334;BME280;27078;46.428;6.256;2023-11-21T07:44:51;96149.53;;;6.10;78.24
41334;BME280;27078;46.428;6.256;2023-11-21T07:47:17;96153.06;;;6.16;77.36
41334;BME280;27078;46.428;6.256;2023-11-21T07:49:42;96154.94;;;6.21;77.02
41334;BME280;27078;46.428;6.256;2023-11-21T07:52:09;96154.03;;;6.30;78.39
41334;BME280;27078;46.428;6.256;2023-11-21T07:54:35;96156.78;;;6.35;77.98
41334;BME280;27078;46.428;6.256;2023-11-21T07:57:01;96157.25;;;6.43;78.34
41334;BME280;27078;46.428;6.256;2023-11-21T07:59:26;96155.56;;;6.47;79.73
41334;BME280;27078;46.428;6.256;2023-11-21T08:01:51;96159.66;;;6.49;79.00
41334;BME280;27078;46.428;6.256;2023-11-21T08:04:17;96156.94;;;6.44;78.77
41334;BME280;27078;46.428;6.256;2023-11-21T08:06:42;96162.78;;;6.43;77.62
41334;BME280;27078;46.428;6.256;2023-11-21T08:09:08;96152.88;;;6.42;78.84
41334;BME280;27078;46.428;6.256;2023-11-21T08:11:33;96155.31;;;6.43;78.95
41334;BME280;27078;46.428;6.256;2023-11-21T08:13:59;96155.31;;;6.43;78.27
41334;BME280;27078;46.428;6.256;2023-11-21T08:16:25;96159.13;;;6.47;79.03
41334;BME280;27078;46.428;6.256;2023-11-21T08:18:50;96160.19;;;6.51;78.54
41334;BME280;27078;46.428;6.256;2023-11-21T08:21:16;96151.78;;;6.67;80.18
41334;BME280;27078;46.428;6.256;2023-11-21T08:23:41;96142.69;;;6.90;79.80
41334;BME280;27078;46.428;6.256;2023-11-21T08:26:07;96154.66;;;7.04;77.48
41334;BME280;27078;46.428;6.256;2023-11-21T08:28:34;96160.97;;;7.10;77.51
41334;BME280;27078;46.428;6.256;2023-11-21T08:31:00;96154.63;;;7.09;77.51
41334;BME280;27078;46.428;6.256;2023-11-21T08:33:26;96169.50;;;7.08;77.67
41334;BME280;27078;46.428;6.256;2023-11-21T08:35:51;96166.22;;;7.30;76.94
41334;BME280;27078;46.428;6.256;2023-11-21T08:38:16;96161.78;;;7.53;76.10
41334;BME280;27078;46.428;6.256;2023-11-21T08:40:43;96157.75;;;7.65;76.02
41334;BME280;27078;46.428;6.256;2023-11-21T08:43:08;96164.25;;;7.55;74.41
41334;BME280;27078;46.428;6.256;2023-11-21T08:45:34;96168.44;;;7.71;73.98
41334;BME280;27078;46.428;6.256;2023-11-21T08:48:00;96160.09;;;7.76;71.37
41334;BME280;27078;46.428;6.256;2023-11-21T08:50:26;96160.28;;;7.99;73.44
41334;BME280;27078;46.428;6.256;2023-11-21T08:52:51;96161.88;;;8.05;70.23
41334;BME280;27078;46.428;6.256;2023-11-21T08:55:16;96153.41;;;8.15;71.26
41334;BME280;27078;46.428;6.256;2023-11-21T08:57:43;96155.88;;;8.17;70.33
41334;BME280;27078;46.428;6.256;2023-11-21T09:00:10;96154.44;;;8.19;69.61
41334;BME280;27078;46.428;6.256;2023-11-21T09:02:37;96153.84;;;8.41;71.14
41334;BME280;27078;46.428;6.256;2023-11-21T09:05:06;96154.09;;;8.59;70.14
41334;BME280;27078;46.428;6.256;2023-11-21T09:07:32;96163.34;;;8.68;69.35
41334;BME280;27078;46.428;6.256;2023-11-21T09:09:57;96163.09;;;8.50;68.96
41334;BME280;27078;46.428;6.256;2023-11-21T09:12:23;96164.00;;;8.46;70.09
41334;BME280;27078;46.428;6.256;2023-11-21T09:14:50;96161.44;;;8.49;69.10
41334;BME280;27078;46.428;6.256;2023-11-21T09:17:16;96163.78;;;8.42;69.08
41334;BME280;27078;46.428;6.256;2023-11-21T09:19:41;96163.56;;;8.39;69.94
41334;BME280;27078;46.428;6.256;2023-11-21T09:22:08;96168.72;;;8.45;69.86
41334;BME280;27078;46.428;6.256;2023-11-21T09:24:34;96165.25;;;8.54;68.81
41334;BME280;27078;46.428;6.256;2023-11-21T09:27:00;96164.78;;;8.65;70.13
41334;BME280;27078;46.428;6.256;2023-11-21T09:29:26;96173.06;;;8.65;69.18
41334;BME280;27078;46.428;6.256;2023-11-21T09:31:51;96166.78;;;8.60;69.16
41334;BME280;27078;46.428;6.256;2023-11-21T09:34:17;96164.88;;;8.74;70.26
41334;BME280;27078;46.428;6.256;2023-11-21T09:36:45;96166.75;;;8.79;69.15
41334;BME280;27078;46.428;6.256;2023-11-21T09:39:11;96166.03;;;8.87;68.83
41334;BME280;27078;46.428;6.256;2023-11-21T09:41:46;96154.34;;;8.90;67.67
41334;BME280;27078;46.428;6.256;2023-11-21T09:44:13;96161.94;;;8.84;66.78
41334;BME280;27078;46.428;6.256;2023-11-21T09:46:42;96163.97;;;8.79;69.62
41334;BME280;27078;46.428;6.256;2023-11-21T09:49:09;96168.41;;;8.93;68.98
41334;BME280;27078;46.428;6.256;2023-11-21T09:51:39;96166.56;;;9.03;66.96
41334;BME280;27078;46.428;6.256;2023-11-21T09:54:08;96168.66;;;9.38;68.26
41334;BME280;27078;46.428;6.256;2023-11-21T09:56:37;96161.72;;;9.63;67.19
41334;BME280;27078;46.428;6.256;2023-11-21T09:59:03;96157.00;;;9.64;65.19
41334;BME280;27078;46.428;6.256;2023-11-21T10:01:36;96162.34;;;9.60;65.16
41334;BME280;27078;46.428;6.256;2023-11-21T10:04:02;96168.94;;;9.51;65.50
41334;BME280;27078;46.428;6.256;2023-11-21T10:06:28;96166.97;;;9.37;66.67
41334;BME280;27078;46.428;6.256;2023-11-21T10:08:56;96162.66;;;9.31;66.75
41334;BME280;27078;46.428;6.256;2023-11-21T10:11:25;96159.09;;;9.31;68.21
41334;BME280;27078;46.428;6.256;2023-11-21T10:13:55;96147.09;;;9.49;68.07
41334;BME280;27078;46.428;6.256;2023-11-21T10:16:25;96147.25;;;9.66;65.55
41334;BME280;27078;46.428;6.256;2023-11-21T10:18:52;96146.59;;;9.83;63.21
41334;BME280;27078;46.428;6.256;2023-11-21T10:21:20;96138.72;;;10.13;66.69
41334;BME280;27078;46.428;6.256;2023-11-21T10:23:45;96150.34;;;10.37;64.39
41334;BME280;27078;46.428;6.256;2023-11-21T10:26:12;96141.88;;;10.43;63.13
41334;BME280;27078;46.428;6.256;2023-11-21T10:28:55;96139.88;;;10.57;64.10
41334;BME280;27078;46.428;6.256;2023-11-21T10:31:21;96133.63;;;10.82;61.68
41334;BME280;27078;46.428;6.256;2023-11-21T10:33:49;96132.66;;;10.78;59.43
41334;BME280;27078;46.428;6.256;2023-11-21T10:36:25;96133.16;;;10.80;60.83
41334;BME280;27078;46.428;6.256;2023-11-21T10:38:51;96126.94;;;11.15;61.13
41334;BME280;27078;46.428;6.256;2023-11-21T10:41:18;96126.22;;;11.49;62.24
41334;BME280;27078;46.428;6.256;2023-11-21T10:43:43;96126.94;;;11.72;60.08
41334;BME280;27078;46.428;6.256;2023-11-21T10:46:09;96124.31;;;11.75;60.22
41334;BME280;27078;46.428;6.256;2023-11-21T10:48:35;96128.53;;;11.64;59.83
41334;BME280;27078;46.428;6.256;2023-11-21T10:51:06;96137.06;;;11.19;58.55
41334;BME280;27078;46.428;6.256;2023-11-21T10:53:32;96150.56;;;11.03;62.60
41334;BME280;27078;46.428;6.256;2023-11-21T10:56:09;96144.91;;;10.77;62.10
41334;BME280;27078;46.428;6.256;2023-11-21T10:58:43;96155.75;;;10.65;65.29
41334;BME280;27078;46.428;6.256;2023-11-21T11:01:09;96163.44;;;10.46;66.65
41334;BME280;27078;46.428;6.256;2023-11-21T11:03:39;96166.91;;;10.29;66.86
41334;BME280;27078;46.428;6.256;2023-11-21T11:06:06;96161.00;;;10.08;66.87
41334;BME280;27078;46.428;6.256;2023-11-21T11:08:37;96158.47;;;9.98;68.02
41334;BME280;27078;46.428;6.256;2023-11-21T11:11:04;96157.47;;;9.93;68.11
41334;BME280;27078;46.428;6.256;2023-11-21T11:13:31;96158.03;;;10.04;69.97
41334;BME280;27078;46.428;6.256;2023-11-21T11:16:00;96162.09;;;9.84;69.26
41334;BME280;27078;46.428;6.256;2023-11-21T11:18:27;96156.84;;;9.97;68.34
41334;BME280;27078;46.428;6.256;2023-11-21T11:21:07;96156.47;;;10.12;67.73
41334;BME280;27078;46.428;6.256;2023-11-21T11:23:44;96163.31;;;10.28;68.22
41334;BME280;27078;46.428;6.256;2023-11-21T11:26:24;96166.94;;;10.15;67.46
41334;BME280;27078;46.428;6.256;2023-11-21T11:29:27;96160.75;;;10.18;66.94
41334;BME280;27078;46.428;6.256;2023-11-21T11:32:24;96157.78;;;10.14;68.51
41334;BME280;27078;46.428;6.256;2023-11-21T11:35:17;96161.13;;;10.03;67.21
41334;BME280;27078;46.428;6.256;2023-11-21T11:37:44;96157.22;;;10.04;65.55
41334;BME280;27078;46.428;6.256;2023-11-21T11:40:13;96153.31;;;10.05;68.10
41334;BME280;27078;46.428;6.256;2023-11-21T11:42:38;96149.19;;;10.02;66.47
41334;BME280;27078;46.428;6.256;2023-11-21T11:45:24;96153.41;;;10.13;65.51
41334;BME280;27078;46.428;6.256;2023-11-21T11:47:56;96145.06;;;10.27;68.37
41334;BME280;27078;46.428;6.256;2023-11-21T11:50:22;96142.13;;;10.32;67.26
41334;BME280;27078;46.428;6.256;2023-11-21T11:55:17;96159.28;;;10.34;66.56
41334;BME280;27078;46.428;6.256;2023-11-21T11:57:47;96150.47;;;10.32;66.78
41334;BME280;27078;46.428;6.256;2023-11-21T12:00:21;96141.16;;;10.14;67.44
41334;BME280;27078;46.428;6.256;2023-11-21T12:03:00;96152.06;;;10.11;65.11
41334;BME280;27078;46.428;6.256;2023-11-21T12:05:33;96150.66;;;10.00;66.40
41334;BME280;27078;46.428;6.256;2023-11-21T12:08:05;96135.38;;;9.88;64.42
41334;BME280;27078;46.428;6.256;2023-11-21T12:10:33;96142.50;;;9.81;66.30
41334;BME280;27078;46.428;6.256;2023-11-21T12:13:18;96129.59;;;9.76;67.02
41334;BME280;27078;46.428;6.256;2023-11-21T12:15:43;96131.97;;;9.69;68.77
41334;BME280;27078;46.428;6.256;2023-11-21T12:18:10;96129.38;;;9.73;70.00
41334;BME280;27078;46.428;6.256;2023-11-21T12:20:36;96132.00;;;9.91;68.07
41334;BME280;27078;46.428;6.256;2023-11-21T12:23:04;96129.50;;;10.04;68.35
41334;BME280;27078;46.428;6.256;2023-11-21T12:25:30;96129.13;;;10.19;68.48
41334;BME280;27078;46.428;6.256;2023-11-21T12:27:58;96129.66;;;10.44;67.30
41334;BME280;27078;46.428;6.256;2023-11-21T12:30:26;96128.44;;;10.58;68.22
41334;BME280;27078;46.428;6.256;2023-11-21T12:32:55;96126.91;;;10.44;67.54
41334;BME280;27078;46.428;6.256;2023-11-21T12:35:23;96124.31;;;10.47;67.62
41334;BME280;27078;46.428;6.256;2023-11-21T12:37:50;96121.00;;;10.45;67.90
41334;BME280;27078;46.428;6.256;2023-11-21T12:40:17;96120.72;;;10.47;67.38
41334;BME280;27078;46.428;6.256;2023-11-21T12:42:47;96115.25;;;10.64;66.54
41334;BME280;27078;46.428;6.256;2023-11-21T12:47:42;96118.91;;;10.73;66.21
41334;BME280;27078;46.428;6.256;2023-11-21T12:50:08;96116.22;;;10.91;63.87
41334;BME280;27078;46.428;6.256;2023-11-21T12:52:41;96126.00;;;10.88;65.64
41334;BME280;27078;46.428;6.256;2023-11-21T12:55:06;96121.44;;;10.92;64.27
41334;BME280;27078;46.428;6.256;2023-11-21T12:57:34;96125.94;;;10.79;65.03
41334;BME280;27078;46.428;6.256;2023-11-21T13:00:02;96132.06;;;10.90;63.43
41334;BME280;27078;46.428;6.256;2023-11-21T13:02:36;96135.69;;;10.99;63.40
41334;BME280;27078;46.428;6.256;2023-11-21T13:05:03;96134.34;;;10.97;62.62
41334;BME280;27078;46.428;6.256;2023-11-21T13:07:41;96141.94;;;11.05;63.37
41334;BME280;27078;46.428;6.256;2023-11-21T13:10:14;96140.84;;;11.23;63.32
41334;BME280;27078;46.428;6.256;2023-11-21T13:12:45;96145.00;;;11.43;61.16
41334;BME280;27078;46.428;6.256;2023-11-21T13:15:14;96140.66;;;11.68;62.36